createdAt,value
2022-12-05T00:00:04.790Z,0.80
2022-12-05T00:01:04.764Z,0.78
2022-12-05T00:02:04.741Z,0.77
2022-12-05T00:03:04.781Z,0.77
2022-12-05T00:04:04.789Z,0.76
2022-12-05T00:05:04.737Z,0.75
2022-12-05T00:06:04.783Z,0.74
2022-12-05T00:07:04.716Z,0.75
2022-12-05T00:08:04.831Z,0.74
2022-12-05T00:09:04.760Z,0.74
2022-12-05T00:10:04.737Z,0.74
2022-12-05T00:11:04.777Z,0.73
2022-12-05T00:12:04.728Z,0.73
2022-12-05T00:13:04.725Z,0.72
2022-12-05T00:14:04.731Z,0.73
2022-12-05T00:15:04.796Z,0.73
2022-12-05T00:16:04.786Z,0.72
2022-12-05T00:17:04.791Z,0.71
2022-12-05T00:18:04.811Z,0.72
2022-12-05T00:19:04.805Z,0.72
2022-12-05T00:20:04.766Z,0.71
2022-12-05T00:21:04.759Z,0.71
2022-12-05T00:22:04.751Z,0.71
2022-12-05T00:23:04.736Z,0.70
2022-12-05T00:24:04.745Z,0.70
2022-12-05T00:25:04.745Z,0.69
2022-12-05T00:26:04.754Z,0.67
2022-12-05T00:27:04.744Z,0.67
2022-12-05T00:28:04.792Z,0.67
2022-12-05T00:29:04.749Z,0.65
2022-12-05T00:30:04.801Z,0.64
2022-12-05T00:31:04.788Z,0.64
2022-12-05T00:32:04.885Z,0.65
2022-12-05T00:33:04.754Z,0.64
2022-12-05T00:34:04.743Z,0.63
2022-12-05T00:35:04.770Z,0.63
2022-12-05T00:36:04.734Z,0.63
2022-12-05T00:37:04.794Z,0.62
2022-12-05T00:38:04.806Z,0.62
2022-12-05T00:39:04.756Z,0.62
2022-12-05T00:40:04.781Z,0.61
2022-12-05T00:41:04.763Z,0.61
2022-12-05T00:42:04.756Z,0.59
2022-12-05T00:43:04.757Z,0.57
2022-12-05T00:44:04.771Z,0.56
2022-12-05T00:45:04.811Z,0.55
2022-12-05T00:46:04.852Z,0.55
2022-12-05T00:47:04.802Z,0.53
2022-12-05T00:48:04.747Z,0.53
2022-12-05T00:49:04.806Z,0.51
2022-12-05T00:50:04.731Z,0.51
2022-12-05T00:51:04.777Z,0.51
2022-12-05T00:52:04.802Z,0.50
2022-12-05T00:53:04.799Z,0.50
2022-12-05T00:54:04.810Z,0.50
2022-12-05T00:55:04.807Z,0.50
2022-12-05T00:56:04.778Z,0.49
2022-12-05T00:57:04.826Z,0.49
2022-12-05T00:58:04.817Z,0.51
2022-12-05T00:59:04.785Z,0.51
2022-12-05T01:00:04.851Z,0.51
2022-12-05T01:01:04.867Z,0.51
2022-12-05T01:02:04.825Z,0.50
2022-12-05T01:03:04.917Z,0.51
2022-12-05T01:04:04.854Z,0.52
2022-12-05T01:05:04.865Z,0.52
2022-12-05T01:06:04.876Z,0.52
2022-12-05T01:07:04.899Z,0.54
2022-12-05T01:08:05.037Z,0.53
2022-12-05T01:09:04.897Z,0.53
2022-12-05T01:10:04.900Z,0.54
2022-12-05T01:11:04.981Z,0.53
2022-12-05T01:12:04.938Z,0.54
2022-12-05T01:13:04.956Z,0.54
2022-12-05T01:14:04.967Z,0.55
2022-12-05T01:15:04.964Z,0.53
2022-12-05T01:16:05.103Z,0.52
2022-12-05T01:17:05.034Z,0.51
2022-12-05T01:18:05.066Z,0.49
2022-12-05T01:19:05.058Z,0.47
2022-12-05T01:20:05.165Z,0.45
2022-12-05T01:21:05.113Z,0.45
2022-12-05T01:22:05.115Z,0.45
2022-12-05T01:23:05.111Z,0.45
2022-12-05T01:24:05.121Z,0.45
2022-12-05T01:25:05.110Z,0.46
2022-12-05T01:26:05.175Z,0.47
2022-12-05T01:27:05.125Z,0.48
2022-12-05T01:28:05.112Z,0.48
2022-12-05T01:29:05.324Z,0.49
2022-12-05T01:30:05.145Z,0.49
2022-12-05T01:31:05.173Z,0.49
2022-12-05T01:32:05.261Z,0.48
2022-12-05T01:33:05.240Z,0.48
2022-12-05T01:34:05.239Z,0.49
2022-12-05T01:35:05.202Z,0.48
2022-12-05T01:36:05.231Z,0.47
2022-12-05T01:37:05.255Z,0.48
2022-12-05T01:38:05.289Z,0.47
2022-12-05T01:39:05.286Z,0.48
2022-12-05T01:40:05.255Z,0.47
2022-12-05T01:41:05.337Z,0.47
2022-12-05T01:42:05.354Z,0.47
2022-12-05T01:43:05.372Z,0.47
2022-12-05T01:44:05.379Z,0.48
2022-12-05T01:45:05.376Z,0.48
2022-12-05T01:46:05.524Z,0.48
2022-12-05T01:48:05.394Z,0.48
2022-12-05T01:49:05.351Z,0.46
2022-12-05T01:50:05.361Z,0.45
2022-12-05T01:51:05.357Z,0.44
2022-12-05T01:52:05.352Z,0.43
2022-12-05T01:53:05.370Z,0.42
2022-12-05T01:54:05.420Z,0.42
2022-12-05T01:55:05.371Z,0.42
2022-12-05T01:56:05.401Z,0.42
2022-12-05T01:57:05.376Z,0.43
2022-12-05T01:58:05.372Z,0.42
2022-12-05T01:59:05.361Z,0.42
2022-12-05T02:00:05.357Z,0.43
2022-12-05T02:01:05.436Z,0.44
2022-12-05T02:02:05.393Z,0.44
2022-12-05T02:03:05.380Z,0.45
2022-12-05T02:04:05.358Z,0.44
2022-12-05T02:05:05.406Z,0.46
2022-12-05T02:06:05.366Z,0.46
2022-12-05T02:07:05.373Z,0.46
2022-12-05T02:08:05.468Z,0.47
2022-12-05T02:09:05.375Z,0.48
2022-12-05T02:10:05.358Z,0.47
2022-12-05T02:11:05.360Z,0.48
2022-12-05T02:12:05.375Z,0.45
2022-12-05T02:13:05.400Z,0.46
2022-12-05T02:14:05.363Z,0.46
2022-12-05T02:15:05.361Z,0.46
2022-12-05T02:16:05.476Z,0.45
2022-12-05T02:17:05.394Z,0.46
2022-12-05T02:18:05.380Z,0.47
2022-12-05T02:19:05.411Z,0.47
2022-12-05T02:20:05.378Z,0.49
2022-12-05T02:21:05.388Z,0.49
2022-12-05T02:22:05.367Z,0.49
2022-12-05T02:23:05.392Z,0.48
2022-12-05T02:24:05.451Z,0.48
2022-12-05T02:25:05.399Z,0.49
2022-12-05T02:26:05.386Z,0.49
2022-12-05T02:27:05.371Z,0.48
2022-12-05T02:28:05.444Z,0.51
2022-12-05T02:29:05.536Z,0.49
2022-12-05T02:30:05.387Z,0.51
2022-12-05T02:31:05.460Z,0.51
2022-12-05T02:32:05.409Z,0.50
2022-12-05T02:33:05.439Z,0.50
2022-12-05T02:34:05.421Z,0.49
2022-12-05T02:35:05.394Z,0.47
2022-12-05T02:36:05.397Z,0.46
2022-12-05T02:37:05.391Z,0.46
2022-12-05T02:38:05.389Z,0.44
2022-12-05T02:39:05.503Z,0.44
2022-12-05T02:40:05.365Z,0.43
2022-12-05T02:41:05.405Z,0.42
2022-12-05T02:42:05.406Z,0.42
2022-12-05T02:43:05.453Z,0.40
2022-12-05T02:44:05.478Z,0.39
2022-12-05T02:45:05.403Z,0.37
2022-12-05T02:46:05.484Z,0.36
2022-12-05T02:47:05.395Z,0.36
2022-12-05T02:48:05.411Z,0.35
2022-12-05T02:49:05.417Z,0.35
2022-12-05T02:50:05.426Z,0.35
2022-12-05T02:51:05.414Z,0.34
2022-12-05T02:52:05.407Z,0.34
2022-12-05T02:53:05.415Z,0.34
2022-12-05T02:54:05.403Z,0.34
2022-12-05T02:55:05.401Z,0.35
2022-12-05T02:56:05.401Z,0.36
2022-12-05T02:57:05.408Z,0.35
2022-12-05T02:58:05.415Z,0.38
2022-12-05T02:59:05.416Z,0.37
2022-12-05T03:00:05.479Z,0.37
2022-12-05T03:01:05.471Z,0.37
2022-12-05T03:02:05.474Z,0.37
2022-12-05T03:03:05.476Z,0.37
2022-12-05T03:04:05.467Z,0.37
2022-12-05T03:05:05.435Z,0.38
2022-12-05T03:06:05.421Z,0.39
2022-12-05T03:07:05.418Z,0.39
2022-12-05T03:08:05.521Z,0.39
2022-12-05T03:09:05.470Z,0.38
2022-12-05T03:10:05.432Z,0.38
2022-12-05T03:11:05.456Z,0.37
2022-12-05T03:12:05.429Z,0.36
2022-12-05T03:13:05.418Z,0.36
2022-12-05T03:14:05.478Z,0.38
2022-12-05T03:15:05.414Z,0.37
2022-12-05T03:16:05.452Z,0.37
2022-12-05T03:17:05.510Z,0.37
2022-12-05T03:18:05.494Z,0.38
2022-12-05T03:19:05.430Z,0.36
2022-12-05T03:20:05.426Z,0.37
2022-12-05T03:21:05.444Z,0.37
2022-12-05T03:22:05.445Z,0.36
2022-12-05T03:23:05.451Z,0.37
2022-12-05T03:24:05.437Z,0.36
2022-12-05T03:25:05.437Z,0.36
2022-12-05T03:26:05.462Z,0.37
2022-12-05T03:27:05.430Z,0.37
2022-12-05T03:28:05.441Z,0.37
2022-12-05T03:29:05.444Z,0.37
2022-12-05T03:30:05.441Z,0.39
2022-12-05T03:31:05.506Z,0.39
2022-12-05T03:32:05.720Z,0.39
2022-12-05T03:33:05.444Z,0.37
2022-12-05T03:34:05.443Z,0.38
2022-12-05T03:35:05.499Z,0.39
2022-12-05T03:36:05.447Z,0.38
2022-12-05T03:37:05.475Z,0.37
2022-12-05T03:38:05.451Z,0.37
2022-12-05T03:39:05.441Z,0.37
2022-12-05T03:40:05.449Z,0.37
2022-12-05T03:41:05.457Z,0.37
2022-12-05T03:42:05.465Z,0.36
2022-12-05T03:43:05.454Z,0.37
2022-12-05T03:44:05.503Z,0.36
2022-12-05T03:45:05.443Z,0.36
2022-12-05T03:46:05.598Z,0.37
2022-12-05T03:47:05.462Z,0.37
2022-12-05T03:48:05.451Z,0.36
2022-12-05T03:49:05.458Z,0.36
2022-12-05T03:50:05.500Z,0.36
2022-12-05T03:51:05.489Z,0.36
2022-12-05T03:52:05.510Z,0.36
2022-12-05T03:53:20.372Z,0.36
2022-12-05T03:54:05.507Z,0.36
2022-12-05T03:55:05.521Z,0.37
2022-12-05T03:56:05.522Z,0.36
2022-12-05T03:57:05.530Z,0.35
2022-12-05T03:58:05.516Z,0.35
2022-12-05T03:59:05.524Z,0.36
2022-12-05T04:00:05.518Z,0.38
2022-12-05T04:01:05.628Z,0.37
2022-12-05T04:02:05.562Z,0.38
2022-12-05T04:03:05.631Z,0.37
2022-12-05T04:04:05.538Z,0.38
2022-12-05T04:05:05.505Z,0.37
2022-12-05T04:06:05.517Z,0.35
2022-12-05T04:07:05.530Z,0.35
2022-12-05T04:08:05.577Z,0.34
2022-12-05T04:09:05.566Z,0.34
2022-12-05T04:10:05.531Z,0.34
2022-12-05T04:11:05.535Z,0.34
2022-12-05T04:12:05.544Z,0.35
2022-12-05T04:13:05.544Z,0.36
2022-12-05T04:14:05.565Z,0.37
2022-12-05T04:15:05.539Z,0.38
2022-12-05T04:16:05.589Z,0.39
2022-12-05T04:17:05.533Z,0.39
2022-12-05T04:18:05.534Z,0.40
2022-12-05T04:19:05.545Z,0.39
2022-12-05T04:20:05.529Z,0.40
2022-12-05T04:21:05.528Z,0.42
2022-12-05T04:22:05.538Z,0.42
2022-12-05T04:23:05.561Z,0.42
2022-12-05T04:24:05.538Z,0.42
2022-12-05T04:25:05.532Z,0.41
2022-12-05T04:26:05.525Z,0.39
2022-12-05T04:27:05.549Z,0.40
2022-12-05T04:28:05.578Z,0.40
2022-12-05T04:29:05.569Z,0.42
2022-12-05T04:30:05.536Z,0.42
2022-12-05T04:31:05.612Z,0.44
2022-12-05T04:32:05.544Z,0.44
2022-12-05T04:33:05.550Z,0.44
2022-12-05T04:34:05.552Z,0.46
2022-12-05T04:35:05.551Z,0.47
2022-12-05T04:36:05.541Z,0.48
2022-12-05T04:37:05.576Z,0.48
2022-12-05T04:38:05.556Z,0.49
2022-12-05T04:39:05.576Z,0.51
2022-12-05T04:40:05.535Z,0.53
2022-12-05T04:41:05.547Z,0.53
2022-12-05T04:42:05.544Z,0.54
2022-12-05T04:43:05.577Z,0.55
2022-12-05T04:44:05.549Z,0.56
2022-12-05T04:45:05.566Z,0.55
2022-12-05T04:46:05.593Z,0.55
2022-12-05T04:47:05.547Z,0.55
2022-12-05T04:48:05.548Z,0.56
2022-12-05T04:49:05.553Z,0.56
2022-12-05T04:50:05.569Z,0.55
2022-12-05T04:51:05.610Z,0.56
2022-12-05T04:52:05.597Z,0.57
2022-12-05T04:53:05.568Z,0.57
2022-12-05T04:54:05.579Z,0.57
2022-12-05T04:55:05.560Z,0.57
2022-12-05T04:56:05.572Z,0.58
2022-12-05T04:57:05.572Z,0.58
2022-12-05T04:58:05.604Z,0.59
2022-12-05T04:59:05.550Z,0.58
2022-12-05T05:00:05.559Z,0.59
2022-12-05T05:01:05.580Z,0.58
2022-12-05T05:02:05.667Z,0.59
2022-12-05T05:03:05.661Z,0.60
2022-12-05T05:04:05.573Z,0.59
2022-12-05T05:05:08.299Z,0.58
2022-12-05T05:06:05.569Z,0.59
2022-12-05T05:07:05.560Z,0.58
2022-12-05T05:08:05.662Z,0.58
2022-12-05T05:09:05.575Z,0.59
2022-12-05T05:10:05.553Z,0.59
2022-12-05T05:11:05.597Z,0.61
2022-12-05T05:12:05.558Z,0.61
2022-12-05T05:13:05.571Z,0.62
2022-12-05T05:14:05.563Z,0.61
2022-12-05T05:15:05.584Z,0.61
2022-12-05T05:16:05.661Z,0.61
2022-12-05T05:17:05.592Z,0.60
2022-12-05T05:18:05.583Z,0.62
2022-12-05T05:19:05.580Z,0.61
2022-12-05T05:20:05.584Z,0.61
2022-12-05T05:21:05.597Z,0.60
2022-12-05T05:22:05.577Z,0.59
2022-12-05T05:23:05.608Z,0.58
2022-12-05T05:24:05.611Z,0.58
2022-12-05T05:25:05.588Z,0.59
2022-12-05T05:26:05.655Z,0.58
2022-12-05T05:27:05.579Z,0.59
2022-12-05T05:28:05.596Z,0.59
2022-12-05T05:29:05.594Z,0.59
2022-12-05T05:30:05.609Z,0.60
2022-12-05T05:31:05.639Z,0.60
2022-12-05T05:32:05.590Z,0.60
2022-12-05T05:33:05.596Z,0.60
2022-12-05T05:34:09.483Z,0.60
2022-12-05T05:35:05.591Z,0.59
2022-12-05T05:36:05.594Z,0.59
2022-12-05T05:37:05.612Z,0.59
2022-12-05T05:38:05.568Z,0.60
2022-12-05T05:39:05.596Z,0.60
2022-12-05T05:40:10.763Z,0.60
2022-12-05T05:41:05.608Z,0.59
2022-12-05T05:42:05.624Z,0.59
2022-12-05T05:43:05.595Z,0.60
2022-12-05T05:44:05.600Z,0.59
2022-12-05T05:45:05.608Z,0.61
2022-12-05T05:46:05.653Z,0.61
2022-12-05T05:47:05.700Z,0.60
2022-12-05T05:48:05.625Z,0.62
2022-12-05T05:49:05.593Z,0.62
2022-12-05T05:50:05.610Z,0.63
2022-12-05T05:51:05.618Z,0.63
2022-12-05T05:52:05.647Z,0.63
2022-12-05T05:53:05.604Z,0.64
2022-12-05T05:54:05.612Z,0.64
2022-12-05T05:55:05.607Z,0.66
2022-12-05T05:56:05.622Z,0.65
2022-12-05T05:57:05.634Z,0.66
2022-12-05T05:58:05.642Z,0.69
2022-12-05T05:59:05.599Z,0.70
2022-12-05T06:00:05.604Z,0.70
2022-12-05T06:01:05.643Z,0.71
2022-12-05T06:02:05.637Z,0.71
2022-12-05T06:03:05.760Z,0.72
2022-12-05T06:04:05.748Z,0.72
2022-12-05T06:05:05.618Z,0.72
2022-12-05T06:06:05.634Z,0.74
2022-12-05T06:07:05.632Z,0.74
2022-12-05T06:08:05.719Z,0.74
2022-12-05T06:09:05.613Z,0.74
2022-12-05T06:10:05.634Z,0.75
2022-12-05T06:11:05.636Z,0.75
2022-12-05T06:12:05.665Z,0.76
2022-12-05T06:13:05.624Z,0.75
2022-12-05T06:14:05.636Z,0.75
2022-12-05T06:15:05.656Z,0.76
2022-12-05T06:16:05.676Z,0.76
2022-12-05T06:17:05.648Z,0.75
2022-12-05T06:18:05.636Z,0.76
2022-12-05T06:19:05.621Z,0.76
2022-12-05T06:20:05.654Z,0.75
2022-12-05T06:21:05.641Z,0.74
2022-12-05T06:22:05.657Z,0.73
2022-12-05T06:23:05.658Z,0.71
2022-12-05T06:24:05.640Z,0.71
2022-12-05T06:25:05.652Z,0.73
2022-12-05T06:26:05.653Z,0.73
2022-12-05T06:27:05.654Z,0.73
2022-12-05T06:28:05.653Z,0.73
2022-12-05T06:29:05.652Z,0.74
2022-12-05T06:30:05.661Z,0.74
2022-12-05T06:31:05.744Z,0.78
2022-12-05T06:32:05.744Z,0.78
2022-12-05T06:33:05.635Z,0.77
2022-12-05T06:34:05.626Z,0.79
2022-12-05T06:35:05.642Z,0.78
2022-12-05T06:36:05.652Z,0.78
2022-12-05T06:37:05.776Z,0.76
2022-12-05T06:38:05.645Z,0.76
2022-12-05T06:39:05.648Z,0.74
2022-12-05T06:40:05.657Z,0.72
2022-12-05T06:41:05.652Z,0.73
2022-12-05T06:42:05.718Z,0.71
2022-12-05T06:43:05.657Z,0.71
2022-12-05T06:44:05.651Z,0.72
2022-12-05T06:45:05.655Z,0.71
2022-12-05T06:46:05.711Z,0.73
2022-12-05T06:47:05.676Z,0.73
2022-12-05T06:48:05.699Z,0.75
2022-12-05T06:49:05.650Z,0.75
2022-12-05T06:50:05.649Z,0.75
2022-12-05T06:51:05.658Z,0.76
2022-12-05T06:52:05.665Z,0.77
2022-12-05T06:53:05.716Z,0.76
2022-12-05T06:54:05.692Z,0.77
2022-12-05T06:55:05.667Z,0.79
2022-12-05T06:56:05.661Z,0.80
2022-12-05T06:57:05.667Z,0.80
2022-12-05T06:58:05.672Z,0.80
2022-12-05T06:59:05.698Z,0.81
2022-12-05T07:00:05.689Z,0.83
2022-12-05T07:01:05.725Z,0.84
2022-12-05T07:02:05.695Z,0.83
2022-12-05T07:03:05.681Z,0.83
2022-12-05T07:04:05.747Z,0.84
2022-12-05T07:05:05.664Z,0.84
2022-12-05T07:06:05.686Z,0.84
2022-12-05T07:07:05.653Z,0.85
2022-12-05T07:08:05.788Z,0.85
2022-12-05T07:09:05.691Z,0.85
2022-12-05T07:10:05.667Z,0.85
2022-12-05T07:11:05.685Z,0.85
2022-12-05T07:12:05.688Z,0.86
2022-12-05T07:13:05.666Z,0.85
2022-12-05T07:14:14.653Z,0.85
2022-12-05T07:15:05.741Z,0.85
2022-12-05T07:16:05.752Z,0.86
2022-12-05T07:17:05.682Z,0.86
2022-12-05T07:18:05.685Z,0.86
2022-12-05T07:19:05.705Z,0.86
2022-12-05T07:20:05.686Z,0.86
2022-12-05T07:21:13.161Z,0.86
2022-12-05T07:22:09.369Z,0.84
2022-12-05T07:23:05.701Z,0.85
2022-12-05T07:24:05.704Z,0.85
2022-12-05T07:25:05.707Z,0.83
2022-12-05T07:26:05.704Z,0.82
2022-12-05T07:27:05.686Z,0.83
2022-12-05T07:28:05.721Z,0.84
2022-12-05T07:29:05.717Z,0.83
2022-12-05T07:30:05.696Z,0.85
2022-12-05T07:31:05.685Z,0.86
2022-12-05T07:32:05.736Z,0.86
2022-12-05T07:33:05.701Z,0.89
2022-12-05T07:34:05.708Z,0.90
2022-12-05T07:35:05.752Z,0.92
2022-12-05T07:36:05.757Z,0.91
2022-12-05T07:37:05.703Z,0.92
2022-12-05T07:38:05.697Z,0.90
2022-12-05T07:39:05.712Z,0.91
2022-12-05T07:40:05.736Z,0.91
2022-12-05T07:41:09.027Z,0.92
2022-12-05T07:42:05.711Z,0.92
2022-12-05T07:43:05.733Z,0.93
2022-12-05T07:44:05.738Z,0.94
2022-12-05T07:45:05.725Z,0.96
2022-12-05T07:46:05.735Z,0.97
2022-12-05T07:47:05.703Z,0.98
2022-12-05T07:48:05.780Z,0.98
2022-12-05T07:49:05.709Z,0.99
2022-12-05T07:50:05.713Z,1.00
2022-12-05T07:51:05.718Z,1.01
2022-12-05T07:52:05.701Z,1.01
2022-12-05T07:53:05.760Z,1.02
2022-12-05T07:54:05.709Z,1.03
2022-12-05T07:55:05.706Z,1.04
2022-12-05T07:56:05.732Z,1.04
2022-12-05T07:57:05.719Z,1.07
2022-12-05T07:58:05.707Z,1.08
2022-12-05T07:59:05.716Z,1.09
2022-12-05T08:00:05.729Z,1.09
2022-12-05T08:01:05.843Z,1.11
2022-12-05T08:02:05.755Z,1.11
2022-12-05T08:03:05.714Z,1.10
2022-12-05T08:04:06.933Z,1.10
2022-12-05T08:05:05.845Z,1.12
2022-12-05T08:06:05.873Z,1.13
2022-12-05T08:07:05.886Z,1.13
2022-12-05T08:08:05.937Z,1.12
2022-12-05T08:09:05.886Z,1.14
2022-12-05T08:10:05.875Z,1.16
2022-12-05T08:11:05.940Z,1.16
2022-12-05T08:12:05.941Z,1.14
2022-12-05T08:13:05.950Z,1.13
2022-12-05T08:14:05.956Z,1.12
2022-12-05T08:15:05.980Z,1.11
2022-12-05T08:16:05.977Z,1.11
2022-12-05T08:17:06.061Z,1.11
2022-12-05T08:18:06.005Z,1.10
2022-12-05T08:19:06.022Z,1.12
2022-12-05T08:20:06.019Z,1.12
2022-12-05T08:21:06.044Z,1.12
2022-12-05T08:22:06.064Z,1.12
2022-12-05T08:23:06.073Z,1.12
2022-12-05T08:24:06.090Z,1.12
2022-12-05T08:25:06.095Z,1.09
2022-12-05T08:26:06.106Z,1.09
2022-12-05T08:27:06.133Z,1.07
2022-12-05T08:28:06.111Z,1.06
2022-12-05T08:29:06.134Z,1.07
2022-12-05T08:30:06.162Z,1.07
2022-12-05T08:31:06.225Z,1.08
2022-12-05T08:32:06.178Z,1.08
2022-12-05T08:33:06.202Z,1.09
2022-12-05T08:34:06.189Z,1.10
2022-12-05T08:35:06.201Z,1.08
2022-12-05T08:36:06.226Z,1.09
2022-12-05T08:37:06.213Z,1.10
2022-12-05T08:38:06.271Z,1.10
2022-12-05T08:39:06.250Z,1.10
2022-12-05T08:40:06.256Z,1.10
2022-12-05T08:41:06.279Z,1.10
2022-12-05T08:42:06.298Z,1.10
2022-12-05T08:43:06.300Z,1.13
2022-12-05T08:44:06.298Z,1.13
2022-12-05T08:45:06.324Z,1.16
2022-12-05T08:46:06.403Z,1.17
2022-12-05T08:47:06.357Z,1.19
2022-12-05T08:48:06.366Z,1.19
2022-12-05T08:49:06.388Z,1.21
2022-12-05T08:50:06.397Z,1.23
2022-12-05T08:51:06.391Z,1.26
2022-12-05T08:52:06.402Z,1.28
2022-12-05T08:53:06.438Z,1.32
2022-12-05T08:54:06.425Z,1.33
2022-12-05T08:55:06.489Z,1.37
2022-12-05T08:56:06.469Z,1.38
2022-12-05T08:57:06.478Z,1.41
2022-12-05T08:58:06.483Z,1.45
2022-12-05T08:59:06.503Z,1.47
2022-12-05T09:00:06.487Z,1.51
2022-12-05T09:01:06.547Z,1.53
2022-12-05T09:02:06.602Z,1.55
2022-12-05T09:03:06.615Z,1.55
2022-12-05T09:04:06.556Z,1.57
2022-12-05T09:05:26.144Z,1.56
2022-12-05T09:06:06.566Z,1.57
2022-12-05T09:07:06.572Z,1.56
2022-12-05T09:08:06.647Z,1.56
2022-12-05T09:09:06.570Z,1.57
2022-12-05T09:10:06.541Z,1.56
2022-12-05T09:11:06.573Z,1.55
2022-12-05T09:12:06.574Z,1.54
2022-12-05T09:13:06.582Z,1.54
2022-12-05T09:14:06.580Z,1.52
2022-12-05T09:15:06.554Z,1.54
2022-12-05T09:16:06.668Z,1.54
2022-12-05T09:17:06.564Z,1.55
2022-12-05T09:18:06.568Z,1.55
2022-12-05T09:19:06.569Z,1.57
2022-12-05T09:20:06.575Z,1.56
2022-12-05T09:21:06.547Z,1.58
2022-12-05T09:22:06.559Z,1.58
2022-12-05T09:23:07.855Z,1.58
2022-12-05T09:24:06.583Z,1.58
2022-12-05T09:25:06.572Z,1.58
2022-12-05T09:26:06.572Z,1.57
2022-12-05T09:27:06.596Z,1.58
2022-12-05T09:28:06.602Z,1.57
2022-12-05T09:29:08.847Z,1.58
2022-12-05T09:30:06.581Z,1.58
2022-12-05T09:31:06.705Z,1.59
2022-12-05T09:32:06.583Z,1.60
2022-12-05T09:33:06.580Z,1.62
2022-12-05T09:34:06.617Z,1.63
2022-12-05T09:35:06.582Z,1.62
2022-12-05T09:36:06.594Z,1.63
2022-12-05T09:37:30.946Z,1.61
2022-12-05T09:38:06.594Z,1.60
2022-12-05T09:39:06.595Z,1.57
2022-12-05T09:40:06.587Z,1.54
2022-12-05T09:41:06.632Z,1.52
2022-12-05T09:42:06.596Z,1.51
2022-12-05T09:43:06.589Z,1.50
2022-12-05T09:44:06.608Z,1.49
2022-12-05T09:45:06.599Z,1.48
2022-12-05T09:46:06.620Z,1.49
2022-12-05T09:47:06.592Z,1.48
2022-12-05T09:48:06.621Z,1.48
2022-12-05T09:49:06.599Z,1.50
2022-12-05T09:50:06.580Z,1.48
2022-12-05T09:51:06.600Z,1.50
2022-12-05T09:52:06.625Z,1.50
2022-12-05T09:53:06.587Z,1.51
2022-12-05T09:54:06.614Z,1.51
2022-12-05T09:55:06.606Z,1.52
2022-12-05T09:56:06.601Z,1.56
2022-12-05T09:57:06.665Z,1.57
2022-12-05T09:58:06.638Z,1.60
2022-12-05T09:59:06.631Z,1.63
2022-12-05T10:00:06.618Z,1.64
2022-12-05T10:01:06.614Z,1.66
2022-12-05T10:02:06.714Z,1.71
2022-12-05T10:03:06.611Z,1.74
2022-12-05T10:04:06.658Z,1.77
2022-12-05T10:05:06.951Z,1.80
2022-12-05T10:06:06.637Z,1.83
2022-12-05T10:07:06.606Z,1.84
2022-12-05T10:08:06.714Z,1.85
2022-12-05T10:09:06.621Z,1.86
2022-12-05T10:10:06.604Z,1.91
2022-12-05T10:11:06.630Z,1.95
2022-12-05T10:12:06.629Z,2.00
2022-12-05T10:13:06.613Z,2.04
2022-12-05T10:14:06.643Z,2.07
2022-12-05T10:15:06.631Z,2.08
2022-12-05T10:16:06.625Z,2.09
2022-12-05T10:17:06.627Z,2.09
2022-12-05T10:18:06.625Z,2.12
2022-12-05T10:19:06.635Z,2.12
2022-12-05T10:20:06.675Z,2.13
2022-12-05T10:21:06.615Z,2.15
2022-12-05T10:22:06.636Z,2.18
2022-12-05T10:23:06.659Z,2.17
2022-12-05T10:24:06.630Z,2.17
2022-12-05T10:25:06.655Z,2.17
2022-12-05T10:26:06.637Z,2.16
2022-12-05T10:27:06.645Z,2.15
2022-12-05T10:28:06.628Z,2.13
2022-12-05T10:29:06.659Z,2.14
2022-12-05T10:30:06.665Z,2.15
2022-12-05T10:31:06.690Z,2.17
2022-12-05T10:32:06.782Z,2.18
2022-12-05T10:33:09.712Z,2.21
2022-12-05T10:34:06.624Z,2.21
2022-12-05T10:35:06.631Z,2.21
2022-12-05T10:36:06.646Z,2.21
2022-12-05T10:37:06.639Z,2.24
2022-12-05T10:38:06.640Z,2.24
2022-12-05T10:39:11.259Z,2.26
2022-12-05T10:40:06.637Z,2.28
2022-12-05T10:41:06.650Z,2.29
2022-12-05T10:42:06.647Z,2.29
2022-12-05T10:43:06.658Z,2.31
2022-12-05T10:44:06.654Z,2.34
2022-12-05T10:45:06.650Z,2.37
2022-12-05T10:46:08.336Z,2.39
2022-12-05T10:47:06.708Z,2.39
2022-12-05T10:48:06.644Z,2.40
2022-12-05T10:49:06.668Z,2.41
2022-12-05T10:50:06.675Z,2.43
2022-12-05T10:51:06.660Z,2.46
2022-12-05T10:52:06.657Z,2.51
2022-12-05T10:53:06.664Z,2.52
2022-12-05T10:54:06.661Z,2.52
2022-12-05T10:55:06.674Z,2.50
2022-12-05T10:56:29.677Z,2.51
2022-12-05T10:57:06.669Z,2.51
2022-12-05T10:58:06.662Z,2.51
2022-12-05T10:59:06.673Z,2.52
2022-12-05T11:00:06.745Z,2.51
2022-12-05T11:01:06.672Z,2.49
2022-12-05T11:02:06.735Z,2.50
2022-12-05T11:03:06.661Z,2.49
2022-12-05T11:04:12.005Z,2.48
2022-12-05T11:05:06.735Z,2.51
2022-12-05T11:06:07.718Z,2.53
2022-12-05T11:07:06.675Z,2.54
2022-12-05T11:08:06.697Z,2.55
2022-12-05T11:09:06.769Z,2.56
2022-12-05T11:10:06.684Z,2.57
2022-12-05T11:11:06.676Z,2.59
2022-12-05T11:12:06.675Z,2.60
2022-12-05T11:13:06.700Z,2.62
2022-12-05T11:14:06.685Z,2.63
2022-12-05T11:15:06.698Z,2.63
2022-12-05T11:16:06.735Z,2.65
2022-12-05T11:17:06.680Z,2.68
2022-12-05T11:18:06.671Z,2.70
2022-12-05T11:19:06.688Z,2.71
2022-12-05T11:20:06.684Z,2.71
2022-12-05T11:21:06.700Z,2.72
2022-12-05T11:22:06.690Z,2.75
2022-12-05T11:23:06.680Z,2.81
2022-12-05T11:24:06.681Z,2.86
2022-12-05T11:25:06.688Z,2.92
2022-12-05T11:26:06.714Z,2.96
2022-12-05T11:27:06.687Z,3.01
2022-12-05T11:28:06.689Z,3.06
2022-12-05T11:29:06.673Z,3.11
2022-12-05T11:30:06.681Z,3.15
2022-12-05T11:31:06.784Z,3.19
2022-12-05T11:32:06.709Z,3.23
2022-12-05T11:33:06.679Z,3.27
2022-12-05T11:34:06.673Z,3.28
2022-12-05T11:35:06.683Z,3.25
2022-12-05T11:36:06.707Z,3.22
2022-12-05T11:37:06.698Z,3.21
2022-12-05T11:38:06.681Z,3.19
2022-12-05T11:39:06.692Z,3.15
2022-12-05T11:40:06.757Z,3.10
2022-12-05T11:41:06.722Z,3.09
2022-12-05T11:42:06.702Z,3.07
2022-12-05T11:43:06.704Z,3.03
2022-12-05T11:44:06.704Z,2.99
2022-12-05T11:45:06.720Z,2.99
2022-12-05T11:46:06.755Z,2.94
2022-12-05T11:47:06.814Z,2.95
2022-12-05T11:48:06.719Z,2.93
2022-12-05T11:49:06.704Z,2.92
2022-12-05T11:50:06.715Z,2.90
2022-12-05T11:51:06.729Z,2.91
2022-12-05T11:52:06.699Z,2.92
2022-12-05T11:53:06.709Z,2.91
2022-12-05T11:54:06.707Z,2.92
2022-12-05T11:55:06.879Z,2.93
2022-12-05T11:56:06.749Z,2.95
2022-12-05T11:57:06.713Z,2.96
2022-12-05T11:58:06.733Z,2.97
2022-12-05T11:59:06.724Z,2.99
2022-12-05T12:00:06.763Z,3.00
2022-12-05T12:01:06.737Z,3.01
2022-12-05T12:02:06.778Z,3.01
2022-12-05T12:03:06.779Z,3.00
2022-12-05T12:04:06.714Z,2.97
2022-12-05T12:05:06.718Z,2.95
2022-12-05T12:06:06.713Z,2.97
2022-12-05T12:07:06.735Z,2.95
2022-12-05T12:08:06.777Z,2.92
2022-12-05T12:09:06.728Z,2.90
2022-12-05T12:10:09.803Z,2.90
2022-12-05T12:11:06.742Z,2.91
2022-12-05T12:12:06.731Z,2.91
2022-12-05T12:13:06.722Z,2.92
2022-12-05T12:14:06.750Z,2.94
2022-12-05T12:15:06.748Z,2.96
2022-12-05T12:16:08.626Z,2.96
2022-12-05T12:17:06.842Z,2.96
2022-12-05T12:18:06.770Z,2.98
2022-12-05T12:19:06.722Z,2.99
2022-12-05T12:20:06.745Z,2.99
2022-12-05T12:21:06.916Z,3.00
2022-12-05T12:22:06.717Z,3.02
2022-12-05T12:23:06.743Z,3.03
2022-12-05T12:24:06.774Z,3.03
2022-12-05T12:25:06.739Z,2.99
2022-12-05T12:26:06.769Z,2.99
2022-12-05T12:27:06.743Z,2.97
2022-12-05T12:28:06.734Z,2.97
2022-12-05T12:29:06.783Z,2.96
2022-12-05T12:30:06.795Z,2.97
2022-12-05T12:31:06.743Z,2.95
2022-12-05T12:32:06.812Z,2.95
2022-12-05T12:33:06.747Z,2.95
2022-12-05T12:34:06.736Z,2.97
2022-12-05T12:35:06.775Z,2.98
2022-12-05T12:36:06.741Z,3.01
2022-12-05T12:37:06.744Z,3.03
2022-12-05T12:38:06.758Z,3.02
2022-12-05T12:39:06.742Z,3.02
2022-12-05T12:40:06.753Z,3.01
2022-12-05T12:41:06.765Z,3.03
2022-12-05T12:42:06.760Z,3.04
2022-12-05T12:43:06.766Z,3.06
2022-12-05T12:44:06.873Z,3.08
2022-12-05T12:45:06.776Z,3.10
2022-12-05T12:46:11.164Z,3.11
2022-12-05T12:47:06.756Z,3.13
2022-12-05T12:48:06.773Z,3.13
2022-12-05T12:49:06.776Z,3.12
2022-12-05T12:50:06.797Z,3.14
2022-12-05T12:51:06.771Z,3.14
2022-12-05T12:52:06.751Z,3.13
2022-12-05T12:53:06.770Z,3.11
2022-12-05T12:54:06.775Z,3.09
2022-12-05T12:55:06.786Z,3.10
2022-12-05T12:56:06.770Z,3.12
2022-12-05T12:57:12.127Z,3.12
2022-12-05T12:58:06.776Z,3.12
2022-12-05T12:59:06.787Z,3.11
2022-12-05T13:00:06.780Z,3.12
2022-12-05T13:01:06.891Z,3.12
2022-12-05T13:02:06.801Z,3.15
2022-12-05T13:03:06.768Z,3.16
2022-12-05T13:04:06.769Z,3.16
2022-12-05T13:05:06.798Z,3.18
2022-12-05T13:06:06.790Z,3.16
2022-12-05T13:07:06.782Z,3.17
2022-12-05T13:08:06.897Z,3.20
2022-12-05T13:09:06.781Z,3.21
2022-12-05T13:10:06.808Z,3.20
2022-12-05T13:11:06.830Z,3.18
2022-12-05T13:12:06.788Z,3.17
2022-12-05T13:13:06.780Z,3.16
2022-12-05T13:14:06.792Z,3.15
2022-12-05T13:15:06.810Z,3.13
2022-12-05T13:16:06.859Z,3.12
2022-12-05T13:17:06.858Z,3.12
2022-12-05T13:18:06.830Z,3.11
2022-12-05T13:19:06.789Z,3.10